sensor_id;sensor_type;location;lat;lon;timestamp;pressure;altitude;pressure_sealevel;temperature;humidity
58973;BME280;44750;52.040;7.472;2022-09-27T00:03:56;98337.88;;;11.33;0.00
58973;BME280;44750;52.040;7.472;2022-09-27T00:08:56;98340.13;;;11.36;0.00
58973;BME280;44750;52.040;7.472;2022-09-27T00:13:57;98355.97;;;11.40;0.00
58973;BME280;44750;52.040;7.472;2022-09-27T00:18:58;98337.06;;;11.26;0.00
58973;BME280;44750;52.040;7.472;2022-09-27T00:23:58;98363.94;;;11.28;0.00
58973;BME280;44750;52.040;7.472;2022-09-27T00:28:59;98370.41;;;11.27;0.00
58973;BME280;44750;52.040;7.472;2022-09-27T00:34:00;98376.59;;;11.34;0.00
58973;BME280;44750;52.040;7.472;2022-09-27T00:39:00;98375.16;;;11.31;0.00
58973;BME280;44750;52.040;7.472;2022-09-27T00:49:18;98383.69;;;11.35;0.00
58973;BME280;44750;52.040;7.472;2022-09-27T00:54:23;98393.66;;;11.41;0.00
58973;BME280;44750;52.040;7.472;2022-09-27T00:59:34;98367.25;;;11.30;0.00
58973;BME280;44750;52.040;7.472;2022-09-27T01:04:34;98383.25;;;11.38;0.00
58973;BME280;44750;52.040;7.472;2022-09-27T01:09:36;98376.59;;;11.34;0.00
58973;BME280;44750;52.040;7.472;2022-09-27T01:24:54;98364.59;;;11.16;0.00
58973;BME280;44750;52.040;7.472;2022-09-27T01:35:14;98339.28;;;10.97;0.00
58973;BME280;44750;52.040;7.472;2022-09-27T01:40:27;98352.81;;;10.97;0.00
58973;BME280;44750;52.040;7.472;2022-09-27T01:45:35;98353.81;;;11.03;0.00
58973;BME280;44750;52.040;7.472;2022-09-27T01:50:40;98360.91;;;11.04;0.00
58973;BME280;44750;52.040;7.472;2022-09-27T01:55:42;98355.06;;;11.00;0.00
58973;BME280;44750;52.040;7.472;2022-09-27T02:00:44;98351.34;;;11.01;0.00
58973;BME280;44750;52.040;7.472;2022-09-27T02:05:51;98348.63;;;11.01;0.00
58973;BME280;44750;52.040;7.472;2022-09-27T02:10:53;98327.03;;;10.88;0.00
58973;BME280;44750;52.040;7.472;2022-09-27T02:20:55;98330.97;;;10.92;0.00
58973;BME280;44750;52.040;7.472;2022-09-27T02:25:58;98323.47;;;10.87;0.00
58973;BME280;44750;52.040;7.472;2022-09-27T02:31:00;98319.53;;;10.83;0.00
58973;BME280;44750;52.040;7.472;2022-09-27T02:36:01;98296.91;;;10.71;0.00
58973;BME280;44750;52.040;7.472;2022-09-27T02:41:01;98311.47;;;10.70;0.00
58973;BME280;44750;52.040;7.472;2022-09-27T02:56:23;98314.41;;;10.62;0.00
58973;BME280;44750;52.040;7.472;2022-09-27T03:06:24;98299.63;;;10.58;0.00
58973;BME280;44750;52.040;7.472;2022-09-27T03:11:26;98294.91;;;10.46;0.00
58973;BME280;44750;52.040;7.472;2022-09-27T03:16:26;98297.78;;;10.45;0.00
58973;BME280;44750;52.040;7.472;2022-09-27T03:21:26;98306.53;;;10.53;0.00
58973;BME280;44750;52.040;7.472;2022-09-27T03:26:26;98308.19;;;10.54;0.00
58973;BME280;44750;52.040;7.472;2022-09-27T03:31:26;98300.28;;;10.53;0.00
58973;BME280;44750;52.040;7.472;2022-09-27T03:36:27;98306.09;;;10.50;0.00
58973;BME280;44750;52.040;7.472;2022-09-27T03:41:27;98297.59;;;10.46;0.00
58973;BME280;44750;52.040;7.472;2022-09-27T03:46:27;98292.00;;;10.41;0.00
58973;BME280;44750;52.040;7.472;2022-09-27T03:51:27;98278.66;;;10.33;0.00
58973;BME280;44750;52.040;7.472;2022-09-27T03:56:27;98262.06;;;10.23;0.00
58973;BME280;44750;52.040;7.472;2022-09-27T04:01:27;98272.22;;;10.20;0.00
58973;BME280;44750;52.040;7.472;2022-09-27T04:06:27;98281.19;;;10.28;0.00
58973;BME280;44750;52.040;7.472;2022-09-27T04:11:27;98276.59;;;10.21;0.00
58973;BME280;44750;52.040;7.472;2022-09-27T04:16:28;98272.66;;;10.17;0.00
58973;BME280;44750;52.040;7.472;2022-09-27T04:21:28;98274.13;;;10.13;0.00
58973;BME280;44750;52.040;7.472;2022-09-27T04:26:28;98265.81;;;10.01;0.00
58973;BME280;44750;52.040;7.472;2022-09-27T04:31:28;98258.53;;;9.88;0.00
58973;BME280;44750;52.040;7.472;2022-09-27T04:36:28;98272.06;;;9.88;0.00
58973;BME280;44750;52.040;7.472;2022-09-27T04:41:29;98261.69;;;9.79;0.00
58973;BME280;44750;52.040;7.472;2022-09-27T04:46:29;98275.41;;;9.77;0.00
58973;BME280;44750;52.040;7.472;2022-09-27T04:51:29;98270.00;;;9.77;0.00
58973;BME280;44750;52.040;7.472;2022-09-27T04:56:29;98275.63;;;9.76;0.00
58973;BME280;44750;52.040;7.472;2022-09-27T05:01:29;98293.88;;;9.80;0.00
58973;BME280;44750;52.040;7.472;2022-09-27T05:06:31;98289.94;;;9.76;0.00
58973;BME280;44750;52.040;7.472;2022-09-27T05:11:31;98291.81;;;9.76;0.00
58973;BME280;44750;52.040;7.472;2022-09-27T05:16:34;98297.22;;;9.82;0.00
58973;BME280;44750;52.040;7.472;2022-09-27T05:21:34;98304.69;;;9.80;0.00
58973;BME280;44750;52.040;7.472;2022-09-27T05:26:34;98307.81;;;9.84;0.00
58973;BME280;44750;52.040;7.472;2022-09-27T05:31:34;98311.97;;;9.86;0.00
58973;BME280;44750;52.040;7.472;2022-09-27T05:36:34;98305.13;;;9.84;0.00
58973;BME280;44750;52.040;7.472;2022-09-27T05:41:35;98318.00;;;9.88;0.00
58973;BME280;44750;52.040;7.472;2022-09-27T05:46:35;98326.31;;;9.94;0.00
58973;BME280;44750;52.040;7.472;2022-09-27T05:51:35;98346.09;;;10.01;0.00
58973;BME280;44750;52.040;7.472;2022-09-27T05:56:35;98373.72;;;10.23;0.00
58973;BME280;44750;52.040;7.472;2022-09-27T06:01:35;98363.94;;;10.29;0.00
58973;BME280;44750;52.040;7.472;2022-09-27T06:06:35;98369.56;;;10.34;0.00
58973;BME280;44750;52.040;7.472;2022-09-27T06:11:36;98354.78;;;10.30;0.00
58973;BME280;44750;52.040;7.472;2022-09-27T06:16:36;98366.84;;;10.34;0.00
58973;BME280;44750;52.040;7.472;2022-09-27T06:21:36;98354.59;;;10.38;0.00
58973;BME280;44750;52.040;7.472;2022-09-27T06:26:36;98353.34;;;10.41;0.00
58973;BME280;44750;52.040;7.472;2022-09-27T06:31:36;98372.28;;;10.41;0.00
58973;BME280;44750;52.040;7.472;2022-09-27T06:36:36;98364.38;;;10.39;0.00
58973;BME280;44750;52.040;7.472;2022-09-27T06:41:36;98358.13;;;10.32;0.00
58973;BME280;44750;52.040;7.472;2022-09-27T06:46:37;98361.66;;;10.32;0.00
58973;BME280;44750;52.040;7.472;2022-09-27T06:51:37;98383.50;;;10.51;0.00
58973;BME280;44750;52.040;7.472;2022-09-27T06:56:37;98377.66;;;10.54;0.00
58973;BME280;44750;52.040;7.472;2022-09-27T07:01:37;98359.81;;;10.46;0.00
58973;BME280;44750;52.040;7.472;2022-09-27T07:06:40;98389.72;;;10.71;0.00
58973;BME280;44750;52.040;7.472;2022-09-27T07:11:40;98365.38;;;10.65;0.00
58973;BME280;44750;52.040;7.472;2022-09-27T07:16:41;98403.38;;;10.97;0.00
58973;BME280;44750;52.040;7.472;2022-09-27T07:21:41;98395.22;;;11.10;0.00
58973;BME280;44750;52.040;7.472;2022-09-27T07:26:41;98369.00;;;11.11;0.00
58973;BME280;44750;52.040;7.472;2022-09-27T07:31:41;98333.66;;;10.99;0.00
58973;BME280;44750;52.040;7.472;2022-09-27T07:36:41;98310.97;;;10.93;0.00
58973;BME280;44750;52.040;7.472;2022-09-27T07:41:42;98315.53;;;10.93;0.00
58973;BME280;44750;52.040;7.472;2022-09-27T07:46:42;98306.56;;;10.99;0.00
58973;BME280;44750;52.040;7.472;2022-09-27T07:51:42;98300.66;;;11.15;0.00
58973;BME280;44750;52.040;7.472;2022-09-27T07:56:45;98321.03;;;11.57;0.00
58973;BME280;44750;52.040;7.472;2022-09-27T08:01:45;98320.38;;;12.00;0.00
58973;BME280;44750;52.040;7.472;2022-09-27T08:06:45;98279.84;;;12.05;0.00
58973;BME280;44750;52.040;7.472;2022-09-27T08:11:46;98274.69;;;12.41;0.00
58973;BME280;44750;52.040;7.472;2022-09-27T08:16:46;98238.38;;;12.60;0.00
58973;BME280;44750;52.040;7.472;2022-09-27T08:21:46;98194.41;;;12.70;0.00
58973;BME280;44750;52.040;7.472;2022-09-27T08:26:46;98168.97;;;12.83;0.00
58973;BME280;44750;52.040;7.472;2022-09-27T08:31:49;98128.34;;;12.76;0.00
58973;BME280;44750;52.040;7.472;2022-09-27T08:36:49;98081.06;;;12.53;0.00
58973;BME280;44750;52.040;7.472;2022-09-27T08:41:50;98060.94;;;12.31;0.00
58973;BME280;44750;52.040;7.472;2022-09-27T08:47:09;98033.84;;;11.94;0.00
58973;BME280;44750;52.040;7.472;2022-09-27T08:52:17;98032.50;;;12.03;0.00
58973;BME280;44750;52.040;7.472;2022-09-27T08:57:19;98040.00;;;12.19;0.00
58973;BME280;44750;52.040;7.472;2022-09-27T09:02:21;98054.81;;;12.78;0.00
58973;BME280;44750;52.040;7.472;2022-09-27T09:07:46;98012.44;;;12.65;0.00
58973;BME280;44750;52.040;7.472;2022-09-27T09:12:48;98009.28;;;12.80;0.00
58973;BME280;44750;52.040;7.472;2022-09-27T09:28:20;98021.31;;;13.67;0.00
58973;BME280;44750;52.040;7.472;2022-09-27T09:33:27;97943.84;;;13.41;2.09
58973;BME280;44750;52.040;7.472;2022-09-27T09:38:39;97932.03;;;13.35;11.30
58973;BME280;44750;52.040;7.472;2022-09-27T09:48:46;97883.75;;;13.66;27.91
58973;BME280;44750;52.040;7.472;2022-09-27T09:53:50;97853.25;;;13.47;34.35
58973;BME280;44750;52.040;7.472;2022-09-27T10:03:55;97872.19;;;13.06;36.90
58973;BME280;44750;52.040;7.472;2022-09-27T10:08:55;97900.94;;;13.83;36.44
58973;BME280;44750;52.040;7.472;2022-09-27T10:13:55;97896.56;;;14.45;44.24
58973;BME280;44750;52.040;7.472;2022-09-27T10:18:56;97863.66;;;14.13;56.44
58973;BME280;44750;52.040;7.472;2022-09-27T10:34:26;97865.97;;;14.72;81.12
58973;BME280;44750;52.040;7.472;2022-09-27T10:39:27;97846.19;;;14.43;89.50
58973;BME280;44750;52.040;7.472;2022-09-27T10:44:29;97861.81;;;13.84;92.94
58973;BME280;44750;52.040;7.472;2022-09-27T10:54:31;97935.72;;;14.73;87.87
58973;BME280;44750;52.040;7.472;2022-09-27T10:59:33;97933.66;;;15.19;95.50
58973;BME280;44750;52.040;7.472;2022-09-27T11:04:35;97863.25;;;14.72;100.00
58973;BME280;44750;52.040;7.472;2022-09-27T11:09:52;97900.38;;;14.61;100.00
58973;BME280;44750;52.040;7.472;2022-09-27T11:15:00;97884.09;;;14.15;100.00
58973;BME280;44750;52.040;7.472;2022-09-27T11:30:20;98067.84;;;13.11;89.98
58973;BME280;44750;52.040;7.472;2022-09-27T11:40:25;98110.94;;;12.96;65.45
58973;BME280;44750;52.040;7.472;2022-09-27T12:01:01;98114.72;;;13.49;55.78
58973;BME280;44750;52.040;7.472;2022-09-27T12:06:21;98040.25;;;13.26;65.60
58973;BME280;44750;52.040;7.472;2022-09-27T12:11:25;98039.31;;;13.44;69.88
58973;BME280;44750;52.040;7.472;2022-09-27T12:16:29;98016.16;;;13.42;73.12
58973;BME280;44750;52.040;7.472;2022-09-27T12:21:30;97990.63;;;13.19;78.77
58973;BME280;44750;52.040;7.472;2022-09-27T12:26:36;97995.81;;;13.32;81.17
58973;BME280;44750;52.040;7.472;2022-09-27T12:37:13;97960.25;;;13.34;91.33
58973;BME280;44750;52.040;7.472;2022-09-27T12:42:19;97976.16;;;13.78;95.42
58973;BME280;44750;52.040;7.472;2022-09-27T12:48:10;97909.44;;;13.87;100.00
58973;BME280;44750;52.040;7.472;2022-09-27T12:52:43;97907.63;;;13.76;100.00
58973;BME280;44750;52.040;7.472;2022-09-27T13:13:02;98096.34;;;12.36;99.80
58973;BME280;44750;52.040;7.472;2022-09-27T13:18:03;98143.97;;;12.32;86.18
58973;BME280;44750;52.040;7.472;2022-09-27T13:33:49;98232.47;;;12.63;52.45
58973;BME280;44750;52.040;7.472;2022-09-27T13:49:12;98269.94;;;13.22;37.03
58973;BME280;44750;52.040;7.472;2022-09-27T14:04:34;98273.03;;;12.95;35.06
58973;BME280;44750;52.040;7.472;2022-09-27T14:09:39;98238.88;;;12.87;38.31
58973;BME280;44750;52.040;7.472;2022-09-27T14:14:42;98230.75;;;12.87;42.82
58973;BME280;44750;52.040;7.472;2022-09-27T14:19:43;98228.56;;;13.08;46.15
58973;BME280;44750;52.040;7.472;2022-09-27T14:24:45;98223.41;;;13.18;49.13
58973;BME280;44750;52.040;7.472;2022-09-27T14:29:53;98193.19;;;13.27;52.58
58973;BME280;44750;52.040;7.472;2022-09-27T14:40:17;98146.19;;;13.14;66.15
58973;BME280;44750;52.040;7.472;2022-09-27T14:45:23;98122.78;;;13.13;72.05
58973;BME280;44750;52.040;7.472;2022-09-27T14:50:26;98098.22;;;13.08;77.94
58973;BME280;44750;52.040;7.472;2022-09-27T14:55:27;98056.75;;;12.89;84.76
58973;BME280;44750;52.040;7.472;2022-09-27T15:00:32;98031.00;;;12.80;90.48
58973;BME280;44750;52.040;7.472;2022-09-27T15:05:32;98046.59;;;12.96;92.96
58973;BME280;44750;52.040;7.472;2022-09-27T15:10:33;98037.53;;;13.02;95.19
58973;BME280;44750;52.040;7.472;2022-09-27T15:15:35;98037.28;;;13.04;96.16
58973;BME280;44750;52.040;7.472;2022-09-27T15:20:35;98044.13;;;13.07;96.90
58973;BME280;44750;52.040;7.472;2022-09-27T15:25:37;98064.69;;;13.14;96.44
58973;BME280;44750;52.040;7.472;2022-09-27T15:30:39;98049.56;;;12.95;96.24
58973;BME280;44750;52.040;7.472;2022-09-27T15:35:45;98070.78;;;12.98;94.23
58973;BME280;44750;52.040;7.472;2022-09-27T15:45:49;98033.09;;;12.78;95.09
58973;BME280;44750;52.040;7.472;2022-09-27T15:50:49;98027.34;;;12.86;97.68
58973;BME280;44750;52.040;7.472;2022-09-27T15:55:50;97991.72;;;12.82;100.00
58973;BME280;44750;52.040;7.472;2022-09-27T16:00:53;97978.94;;;12.83;100.00
58973;BME280;44750;52.040;7.472;2022-09-27T16:05:54;97982.13;;;12.80;100.00
58973;BME280;44750;52.040;7.472;2022-09-27T16:10:56;97982.47;;;12.83;100.00
58973;BME280;44750;52.040;7.472;2022-09-27T16:15:56;97973.88;;;12.75;100.00
58973;BME280;44750;52.040;7.472;2022-09-27T16:20:57;97981.41;;;12.73;100.00
58973;BME280;44750;52.040;7.472;2022-09-27T16:25:57;97984.72;;;12.75;100.00
58973;BME280;44750;52.040;7.472;2022-09-27T16:31:04;97972.69;;;12.70;100.00
58973;BME280;44750;52.040;7.472;2022-09-27T16:36:05;97983.53;;;12.70;100.00
58973;BME280;44750;52.040;7.472;2022-09-27T16:41:06;97988.72;;;12.60;100.00
58973;BME280;44750;52.040;7.472;2022-09-27T16:46:07;97986.59;;;12.62;100.00
58973;BME280;44750;52.040;7.472;2022-09-27T16:51:15;97949.16;;;12.52;100.00
58973;BME280;44750;52.040;7.472;2022-09-27T16:56:15;97934.38;;;12.25;100.00
58973;BME280;44750;52.040;7.472;2022-09-27T17:01:16;97953.59;;;12.23;100.00
58973;BME280;44750;52.040;7.472;2022-09-27T17:06:16;97944.09;;;12.02;100.00
58973;BME280;44750;52.040;7.472;2022-09-27T17:11:17;97966.16;;;12.06;100.00
58973;BME280;44750;52.040;7.472;2022-09-27T17:16:18;97965.88;;;11.95;100.00
58973;BME280;44750;52.040;7.472;2022-09-27T17:21:18;98010.72;;;11.91;100.00
58973;BME280;44750;52.040;7.472;2022-09-27T17:26:19;98021.06;;;11.82;100.00
58973;BME280;44750;52.040;7.472;2022-09-27T17:31:20;98046.22;;;11.71;100.00
58973;BME280;44750;52.040;7.472;2022-09-27T17:36:21;98063.06;;;11.54;100.00
58973;BME280;44750;52.040;7.472;2022-09-27T17:41:22;98111.19;;;11.34;100.00
58973;BME280;44750;52.040;7.472;2022-09-27T17:46:27;98171.75;;;11.14;97.87
58973;BME280;44750;52.040;7.472;2022-09-27T17:51:27;98204.66;;;11.11;92.36
58973;BME280;44750;52.040;7.472;2022-09-27T17:56:28;98242.97;;;11.15;86.85
58973;BME280;44750;52.040;7.472;2022-09-27T18:01:28;98234.75;;;10.96;85.34
58973;BME280;44750;52.040;7.472;2022-09-27T18:06:28;98235.59;;;10.90;84.10
58973;BME280;44750;52.040;7.472;2022-09-27T18:11:28;98240.69;;;10.73;83.13
58973;BME280;44750;52.040;7.472;2022-09-27T18:16:29;98251.31;;;10.75;81.39
58973;BME280;44750;52.040;7.472;2022-09-27T18:21:30;98251.09;;;10.76;80.17
58973;BME280;44750;52.040;7.472;2022-09-27T18:26:31;98257.53;;;10.75;80.11
58973;BME280;44750;52.040;7.472;2022-09-27T18:31:32;98263.97;;;10.74;80.04
58973;BME280;44750;52.040;7.472;2022-09-27T18:36:32;98275.66;;;10.75;79.38
58973;BME280;44750;52.040;7.472;2022-09-27T18:41:32;98284.19;;;10.78;78.50
58973;BME280;44750;52.040;7.472;2022-09-27T18:46:35;98281.47;;;10.78;77.43
58973;BME280;44750;52.040;7.472;2022-09-27T18:51:36;98287.31;;;10.75;76.38
58973;BME280;44750;52.040;7.472;2022-09-27T18:56:36;98301.84;;;10.81;74.35
58973;BME280;44750;52.040;7.472;2022-09-27T19:01:37;98281.50;;;10.65;74.12
58973;BME280;44750;52.040;7.472;2022-09-27T19:06:37;98297.16;;;10.56;72.09
58973;BME280;44750;52.040;7.472;2022-09-27T19:11:38;98311.75;;;10.42;68.91
58973;BME280;44750;52.040;7.472;2022-09-27T19:16:38;98318.81;;;10.29;64.47
58973;BME280;44750;52.040;7.472;2022-09-27T19:21:38;98339.44;;;10.37;60.03
58973;BME280;44750;52.040;7.472;2022-09-27T19:26:38;98344.63;;;10.45;57.19
58973;BME280;44750;52.040;7.472;2022-09-27T19:31:39;98353.97;;;10.43;55.64
58973;BME280;44750;52.040;7.472;2022-09-27T19:36:40;98355.22;;;10.47;52.98
58973;BME280;44750;52.040;7.472;2022-09-27T19:41:40;98350.44;;;10.42;52.42
58973;BME280;44750;52.040;7.472;2022-09-27T19:46:40;98358.53;;;10.42;50.86
58973;BME280;44750;52.040;7.472;2022-09-27T19:51:40;98367.72;;;10.41;49.76
58973;BME280;44750;52.040;7.472;2022-09-27T19:56:40;98343.97;;;10.30;48.94
58973;BME280;44750;52.040;7.472;2022-09-27T20:01:40;98369.16;;;10.24;46.59
58973;BME280;44750;52.040;7.472;2022-09-27T20:06:40;98354.78;;;10.30;44.86
58973;BME280;44750;52.040;7.472;2022-09-27T20:11:40;98357.72;;;10.21;43.04
58973;BME280;44750;52.040;7.472;2022-09-27T20:16:41;98376.66;;;10.35;40.24
58973;BME280;44750;52.040;7.472;2022-09-27T20:21:41;98368.53;;;10.28;38.93
58973;BME280;44750;52.040;7.472;2022-09-27T20:26:41;98373.50;;;10.31;36.52
58973;BME280;44750;52.040;7.472;2022-09-27T20:31:41;98379.75;;;10.25;34.53
58973;BME280;44750;52.040;7.472;2022-09-27T20:36:41;98377.28;;;10.30;31.47
58973;BME280;44750;52.040;7.472;2022-09-27T20:41:43;98377.88;;;10.26;29.02
58973;BME280;44750;52.040;7.472;2022-09-27T20:46:44;98371.00;;;10.30;25.99
58973;BME280;44750;52.040;7.472;2022-09-27T20:51:45;98377.66;;;10.34;23.20
58973;BME280;44750;52.040;7.472;2022-09-27T20:56:46;98373.28;;;10.19;21.66
58973;BME280;44750;52.040;7.472;2022-09-27T21:01:47;98368.53;;;10.08;18.56
58973;BME280;44750;52.040;7.472;2022-09-27T21:06:47;98362.25;;;9.87;15.55
58973;BME280;44750;52.040;7.472;2022-09-27T21:11:48;98355.22;;;9.93;10.66
58973;BME280;44750;52.040;7.472;2022-09-27T21:16:48;98352.31;;;9.95;6.89
58973;BME280;44750;52.040;7.472;2022-09-27T21:21:50;98353.56;;;9.99;3.92
58973;BME280;44750;52.040;7.472;2022-09-27T21:26:50;98341.50;;;9.95;1.14
58973;BME280;44750;52.040;7.472;2022-09-27T21:31:50;98349.81;;;10.00;0.00
58973;BME280;44750;52.040;7.472;2022-09-27T21:36:50;98346.09;;;10.01;0.00
58973;BME280;44750;52.040;7.472;2022-09-27T21:41:50;98341.06;;;9.91;0.00
58973;BME280;44750;52.040;7.472;2022-09-27T21:46:50;98343.56;;;9.93;0.00
58973;BME280;44750;52.040;7.472;2022-09-27T21:51:50;98335.88;;;9.76;0.00
58973;BME280;44750;52.040;7.472;2022-09-27T21:56:50;98342.09;;;9.77;0.00
58973;BME280;44750;52.040;7.472;2022-09-27T22:01:51;98348.56;;;9.82;0.00
58973;BME280;44750;52.040;7.472;2022-09-27T22:06:51;98356.69;;;9.89;0.00
58973;BME280;44750;52.040;7.472;2022-09-27T22:11:51;98352.31;;;9.95;0.00
58973;BME280;44750;52.040;7.472;2022-09-27T22:16:51;98350.22;;;9.97;0.00
58973;BME280;44750;52.040;7.472;2022-09-27T22:21:51;98354.78;;;9.90;0.00
58973;BME280;44750;52.040;7.472;2022-09-27T22:26:51;98350.22;;;9.90;0.00
58973;BME280;44750;52.040;7.472;2022-09-27T22:31:51;98370.19;;;9.96;0.00
58973;BME280;44750;52.040;7.472;2022-09-27T22:36:51;98373.28;;;9.99;0.00
58973;BME280;44750;52.040;7.472;2022-09-27T22:41:51;98371.44;;;10.07;0.00
58973;BME280;44750;52.040;7.472;2022-09-27T22:46:52;98370.59;;;10.13;0.00
58973;BME280;44750;52.040;7.472;2022-09-27T22:51:52;98362.69;;;10.18;0.00
58973;BME280;44750;52.040;7.472;2022-09-27T22:56:52;98363.34;;;10.13;0.00
58973;BME280;44750;52.040;7.472;2022-09-27T23:01:52;98374.16;;;10.13;0.00
58973;BME280;44750;52.040;7.472;2022-09-27T23:06:53;98367.72;;;10.14;0.00
58973;BME280;44750;52.040;7.472;2022-09-27T23:11:53;98372.69;;;10.17;0.00
58973;BME280;44750;52.040;7.472;2022-09-27T23:16:53;98376.63;;;10.21;0.00
58973;BME280;44750;52.040;7.472;2022-09-27T23:21:53;98376.22;;;10.25;0.00
58973;BME280;44750;52.040;7.472;2022-09-27T23:26:53;98368.72;;;10.33;0.00
58973;BME280;44750;52.040;7.472;2022-09-27T23:31:53;98351.06;;;10.17;0.00
58973;BME280;44750;52.040;7.472;2022-09-27T23:36:54;98364.56;;;10.24;0.00
58973;BME280;44750;52.040;7.472;2022-09-27T23:41:54;98374.97;;;10.27;0.00
58973;BME280;44750;52.040;7.472;2022-09-27T23:46:54;98359.97;;;10.25;0.00
58973;BME280;44750;52.040;7.472;2022-09-27T23:51:54;98365.59;;;10.30;0.00
58973;BME280;44750;52.040;7.472;2022-09-27T23:56:54;98364.78;;;10.29;0.00
